No particular awareness of the weather is required.    There are no Weather-warnings


Meteo18 Weather Cam more information Meteo18 Weather Cam


Thunder radar more information blitzortung!


Rain radar more information rain snow radar


Visit our other weather sites:

Template documentation
and downloads

And another site



Weather Underground History page Text

Daily Summary for August 8, 2017 Units:  Both    English   Metric
« Previous Day
Next Day »
Daily Weekly Monthly Yearly Custom
  High: Low: Average:
Temperature: TemperatureC °F /  -17.8 °C 14.6 °F /  -9.7 °C 17.3 °F /  -8.2 °C
Dew Point: DewpointC °F /  -17.8 °C 10.2 °F /  -12.1 °C 13.6 °F /  -10.2 °C
Humidity: Humidity % 61 % 79 %
Wind Speed: WindSpeedKMH mph /  0 km/h - 6.8 mph /  10.9 km/h
Wind Gust: WindSpeedGustKMH mph /  0 km/h - -
Wind:- - WSW
Pressure: PressurehPa in /  0 hPa 1009.4 in /  34178.3 hPa -
Precipitation: 11.2 in /  284.48 mm    
Historical Graphs
 
 
Tabular Data for August 8, 2017
Time Temperature Dew Point Pressure Wind Wind Speed Wind Gust Humidity Rainfall Rate (Hourly)
TemperatureC °F /  -17.8 °C DewpointC °F /  -17.8 °C PressurehPa in /  0 hPa Calm     Humidity % HourlyPrecipMM in /  0 mm
00:02 18.3 °F /  -7.6 °C 14.2 °F /  -9.9 °C 1012.4 in /  34279.9 hPa WNW 3.2 mph /  5.1 km/h 3.2 mph /  5.1 km/h 77 % 0.0 in /  0 mm
00:07 18.1 °F /  -7.7 °C 14.2 °F /  -9.9 °C 1012.4 in /  34279.9 hPa WNW 1.6 mph /  2.6 km/h 4.8 mph /  7.7 km/h 78 % 0.0 in /  0 mm
00:12 17.9 °F /  -7.8 °C 14.0 °F /  -10 °C 1012.4 in /  34279.9 hPa Calm   4.8 mph /  7.7 km/h 78 % 0.0 in /  0 mm
00:17 17.9 °F /  -7.8 °C 14.2 °F /  -9.9 °C 1012.4 in /  34279.9 hPa West 1.6 mph /  2.6 km/h 4.8 mph /  7.7 km/h 79 % 0.0 in /  0 mm
00:22 18.0 °F /  -7.8 °C 14.3 °F /  -9.8 °C 1012.4 in /  34279.9 hPa Calm   4.8 mph /  7.7 km/h 79 % 0.0 in /  0 mm
00:27 18.1 °F /  -7.7 °C 14.4 °F /  -9.8 °C 1012.4 in /  34279.9 hPa Calm   3.2 mph /  5.1 km/h 79 % 0.0 in /  0 mm
00:32 18.1 °F /  -7.7 °C 14.4 °F /  -9.8 °C 1012.1 in /  34269.7 hPa Calm   1.6 mph /  2.6 km/h 79 % 0.0 in /  0 mm
00:42 17.9 °F /  -7.8 °C 14.6 °F /  -9.7 °C 1012.1 in /  34269.7 hPa NW 1.6 mph /  2.6 km/h 1.6 mph /  2.6 km/h 81 % 0.0 in /  0 mm
00:47 17.8 °F /  -7.9 °C 14.3 °F /  -9.8 °C 1012.1 in /  34269.7 hPa Calm   3.2 mph /  5.1 km/h 80 % 0.0 in /  0 mm
00:52 17.9 °F /  -7.8 °C 14.2 °F /  -9.9 °C 1012.4 in /  34279.9 hPa Calm   3.2 mph /  5.1 km/h 79 % 0.0 in /  0 mm
00:57 18.1 °F /  -7.7 °C 14.2 °F /  -9.9 °C 1012.4 in /  34279.9 hPa Calm   3.2 mph /  5.1 km/h 78 % 0.0 in /  0 mm
01:02 18.1 °F /  -7.7 °C 14.2 °F /  -9.9 °C 1012.4 in /  34279.9 hPa Calm   1.6 mph /  2.6 km/h 78 % 0.0 in /  0 mm
01:07 18.2 °F /  -7.7 °C 14.5 °F /  -9.7 °C 1012.1 in /  34269.7 hPa Calm   3.2 mph /  5.1 km/h 79 % 0.0 in /  0 mm
01:12 18.1 °F /  -7.7 °C 14.2 °F /  -9.9 °C 1012.1 in /  34269.7 hPa Calm   3.2 mph /  5.1 km/h 78 % 0.0 in /  0 mm
01:17 18.0 °F /  -7.8 °C 14.9 °F /  -9.5 °C 1012.1 in /  34269.7 hPa SE 1.6 mph /  2.6 km/h 3.2 mph /  5.1 km/h 82 % 0.0 in /  0 mm
01:22 17.7 °F /  -7.9 °C 15.1 °F /  -9.4 °C 1012.1 in /  34269.7 hPa SSE 1.6 mph /  2.6 km/h 4.8 mph /  7.7 km/h 85 % 0.0 in /  0 mm
01:27 17.5 °F /  -8.1 °C 15.1 °F /  -9.4 °C 1012.1 in /  34269.7 hPa Calm   4.8 mph /  7.7 km/h 86 % 0.0 in /  0 mm
01:32 17.4 °F /  -8.1 °C 15.2 °F /  -9.3 °C 1012.1 in /  34269.7 hPa Calm   3.2 mph /  5.1 km/h 87 % 0.0 in /  0 mm
01:37 17.3 °F /  -8.2 °C 15.1 °F /  -9.4 °C 1012.1 in /  34269.7 hPa Calm   3.2 mph /  5.1 km/h 87 % 0.0 in /  0 mm
01:42 17.2 °F /  -8.2 °C 15.2 °F /  -9.3 °C 1012.1 in /  34269.7 hPa Calm   3.2 mph /  5.1 km/h 88 % 0.0 in /  0 mm
01:47 17.2 °F /  -8.2 °C 15.2 °F /  -9.3 °C 1012.1 in /  34269.7 hPa Calm   1.6 mph /  2.6 km/h 88 % 0.0 in /  0 mm
01:52 17.1 °F /  -8.3 °C 14.9 °F /  -9.5 °C 1012.1 in /  34269.7 hPa Calm   1.6 mph /  2.6 km/h 87 % 0.0 in /  0 mm
01:57 17.1 °F /  -8.3 °C 14.7 °F /  -9.6 °C 1012.1 in /  34269.7 hPa Calm   1.6 mph /  2.6 km/h 86 % 0.0 in /  0 mm
02:02 17.2 °F /  -8.2 °C 14.3 °F /  -9.8 °C 1011.7 in /  34256.2 hPa Calm   1.6 mph /  2.6 km/h 83 % 0.0 in /  0 mm
02:07 17.4 °F /  -8.1 °C 14.3 °F /  -9.8 °C 1011.7 in /  34256.2 hPa Calm   1.6 mph /  2.6 km/h 82 % 0.0 in /  0 mm
02:12 17.5 °F /  -8.1 °C 14.4 °F /  -9.8 °C 1011.7 in /  34256.2 hPa Calm   1.6 mph /  2.6 km/h 82 % 0.0 in /  0 mm
02:17 17.5 °F /  -8.1 °C 14.4 °F /  -9.8 °C 1011.7 in /  34256.2 hPa WNW 1.6 mph /  2.6 km/h 1.6 mph /  2.6 km/h 82 % 0.0 in /  0 mm
02:22 17.4 °F /  -8.1 °C 14.3 °F /  -9.8 °C 1011.7 in /  34256.2 hPa Calm   1.6 mph /  2.6 km/h 82 % 0.0 in /  0 mm
02:27 17.4 °F /  -8.1 °C 14.1 °F /  -9.9 °C 1011.7 in /  34256.2 hPa WNW 1.6 mph /  2.6 km/h 1.6 mph /  2.6 km/h 81 % 0.0 in /  0 mm
02:32 17.3 °F /  -8.2 °C 13.8 °F /  -10.1 °C 1011.7 in /  34256.2 hPa Calm   4.8 mph /  7.7 km/h 80 % 0.0 in /  0 mm
02:37 17.3 °F /  -8.2 °C 13.8 °F /  -10.1 °C 1011.7 in /  34256.2 hPa Calm   4.8 mph /  7.7 km/h 80 % 0.0 in /  0 mm
02:42 17.4 °F /  -8.1 °C 13.9 °F /  -10.1 °C 1011.7 in /  34256.2 hPa Calm   4.8 mph /  7.7 km/h 80 % 0.0 in /  0 mm
02:52 17.5 °F /  -8.1 °C 13.8 °F /  -10.1 °C 1011.4 in /  34246 hPa NNE 1.6 mph /  2.6 km/h 3.2 mph /  5.1 km/h 79 % 0.0 in /  0 mm
02:57 17.6 °F /  -8 °C 13.7 °F /  -10.2 °C 1011.4 in /  34246 hPa Calm   3.2 mph /  5.1 km/h 78 % 0.0 in /  0 mm
03:02 17.6 °F /  -8 °C 13.5 °F /  -10.3 °C 1011.4 in /  34246 hPa WNW 1.6 mph /  2.6 km/h 3.2 mph /  5.1 km/h 77 % 0.0 in /  0 mm
03:07 17.6 °F /  -8 °C 13.5 °F /  -10.3 °C 1011.4 in /  34246 hPa Calm   3.2 mph /  5.1 km/h 77 % 0.0 in /  0 mm
03:12 17.6 °F /  -8 °C 13.5 °F /  -10.3 °C 1011.1 in /  34235.8 hPa Calm   3.2 mph /  5.1 km/h 77 % 0.0 in /  0 mm
03:17 17.6 °F /  -8 °C 13.5 °F /  -10.3 °C 1011.1 in /  34235.8 hPa Calm   3.2 mph /  5.1 km/h 77 % 0.0 in /  0 mm
03:22 17.7 °F /  -7.9 °C 13.4 °F /  -10.3 °C 1011.1 in /  34235.8 hPa NW 1.6 mph /  2.6 km/h 4.8 mph /  7.7 km/h 76 % 0.0 in /  0 mm
03:27 17.9 °F /  -7.8 °C 13.4 °F /  -10.3 °C 1011.1 in /  34235.8 hPa WNW 3.2 mph /  5.1 km/h 4.8 mph /  7.7 km/h 75 % 0.0 in /  0 mm
03:32 18.1 °F /  -7.7 °C 13.2 °F /  -10.4 °C 1011.1 in /  34235.8 hPa Calm   4.8 mph /  7.7 km/h 73 % 0.0 in /  0 mm
03:37 18.1 °F /  -7.7 °C 13.2 °F /  -10.4 °C 1011.1 in /  34235.8 hPa Calm   4.8 mph /  7.7 km/h 73 % 0.0 in /  0 mm
03:42 18.2 °F /  -7.7 °C 13.1 °F /  -10.5 °C 1011.1 in /  34235.8 hPa WSW 1.6 mph /  2.6 km/h 4.8 mph /  7.7 km/h 72 % 0.0 in /  0 mm
03:52 18.3 °F /  -7.6 °C 13.2 °F /  -10.4 °C 1012.1 in /  34269.7 hPa WSW 9.7 mph /  15.6 km/h 12.9 mph /  20.8 km/h 72 % 0.0 in /  0 mm
03:57 18.5 °F /  -7.5 °C 12.7 °F /  -10.7 °C 1012.1 in /  34269.7 hPa WSW 24.1 mph /  38.8 km/h 24.1 mph /  38.8 km/h 69 % 0.0 in /  0 mm
04:02 17.9 °F /  -7.8 °C 13.4 °F /  -10.3 °C 1012.4 in /  34279.9 hPa West 16.1 mph /  25.9 km/h 30.6 mph /  49.2 km/h 75 % 0.5 in /  12.7 mm
04:07 17.3 °F /  -8.2 °C 13.6 °F /  -10.2 °C 1011.7 in /  34256.2 hPa WNW 6.4 mph /  10.3 km/h 32.2 mph /  51.8 km/h 79 % 0.5 in /  12.7 mm
04:12 16.9 °F /  -8.4 °C 13.8 °F /  -10.1 °C 1011.7 in /  34256.2 hPa WNW 8.0 mph /  12.9 km/h 32.2 mph /  51.8 km/h 82 % 0.5 in /  12.7 mm
04:17 16.7 °F /  -8.5 °C 13.8 °F /  -10.1 °C 1011.7 in /  34256.2 hPa NW 1.6 mph /  2.6 km/h 32.2 mph /  51.8 km/h 83 % 0.5 in /  12.7 mm
04:27 16.2 °F /  -8.8 °C 13.9 °F /  -10.1 °C 1011.7 in /  34256.2 hPa NW 8.0 mph /  12.9 km/h 16.1 mph /  25.9 km/h 86 % 0.8 in /  20.32 mm
04:32 16.1 °F /  -8.8 °C 13.8 °F /  -10.1 °C 1011.7 in /  34256.2 hPa West 1.6 mph /  2.6 km/h 16.1 mph /  25.9 km/h 86 % 0.8 in /  20.32 mm
04:42 16.0 °F /  -8.9 °C 13.8 °F /  -10.1 °C 1011.7 in /  34256.2 hPa WSW 8.0 mph /  12.9 km/h 14.5 mph /  23.3 km/h 87 % 1.0 in /  25.4 mm
04:47 16.0 °F /  -8.9 °C 13.8 °F /  -10.1 °C 1012.1 in /  34269.7 hPa Calm   12.9 mph /  20.8 km/h 87 % 1.0 in /  25.4 mm
04:52 15.9 °F /  -8.9 °C 13.7 °F /  -10.2 °C 1012.1 in /  34269.7 hPa WSW 8.0 mph /  12.9 km/h 12.9 mph /  20.8 km/h 87 % 1.3 in /  33.02 mm
04:57 15.9 °F /  -8.9 °C 13.9 °F /  -10.1 °C 1012.1 in /  34269.7 hPa SW 1.6 mph /  2.6 km/h 12.9 mph /  20.8 km/h 88 % 1.0 in /  25.4 mm
05:02 15.8 °F /  -9 °C 13.8 °F /  -10.1 °C 1011.7 in /  34256.2 hPa Calm   9.7 mph /  15.6 km/h 88 % 0.8 in /  20.32 mm
05:07 15.8 °F /  -9 °C 13.8 °F /  -10.1 °C 1011.1 in /  34235.8 hPa Calm   9.7 mph /  15.6 km/h 88 % 1.0 in /  25.4 mm
05:12 15.8 °F /  -9 °C 13.8 °F /  -10.1 °C 1011.4 in /  34246 hPa Calm   6.4 mph /  10.3 km/h 88 % 1.0 in /  25.4 mm
05:22 15.7 °F /  -9.1 °C 13.7 °F /  -10.2 °C 1011.1 in /  34235.8 hPa Calm   8.0 mph /  12.9 km/h 88 % 0.8 in /  20.32 mm
05:32 15.5 °F /  -9.2 °C 13.9 °F /  -10.1 °C 1010.4 in /  34212.1 hPa Calm   8.0 mph /  12.9 km/h 90 % 0.8 in /  20.32 mm
05:37 15.5 °F /  -9.2 °C 13.9 °F /  -10.1 °C 1010.4 in /  34212.1 hPa Calm   4.8 mph /  7.7 km/h 90 % 0.5 in /  12.7 mm
05:42 15.4 °F /  -9.2 °C 13.9 °F /  -10.1 °C 1010.0 in /  34198.6 hPa NE 8.0 mph /  12.9 km/h 8.0 mph /  12.9 km/h 91 % 0.5 in /  12.7 mm
05:47 15.4 °F /  -9.2 °C 13.9 °F /  -10.1 °C 1009.4 in /  34178.3 hPa NE 3.2 mph /  5.1 km/h 11.3 mph /  18.2 km/h 91 % 1.0 in /  25.4 mm
05:52 15.4 °F /  -9.2 °C 13.9 °F /  -10.1 °C 1010.7 in /  34222.3 hPa WNW 1.6 mph /  2.6 km/h 11.3 mph /  18.2 km/h 91 % 1.0 in /  25.4 mm
06:02 15.3 °F /  -9.3 °C 14.0 °F /  -10 °C 1010.4 in /  34212.1 hPa Calm   4.8 mph /  7.7 km/h 92 % 1.0 in /  25.4 mm
06:12 15.3 °F /  -9.3 °C 14.0 °F /  -10 °C 1010.0 in /  34198.6 hPa East 3.2 mph /  5.1 km/h 3.2 mph /  5.1 km/h 92 % 0.8 in /  20.32 mm
06:17 15.2 °F /  -9.3 °C 14.1 °F /  -9.9 °C 1010.0 in /  34198.6 hPa Calm   3.2 mph /  5.1 km/h 93 % 0.5 in /  12.7 mm
06:22 15.2 °F /  -9.3 °C 14.1 °F /  -9.9 °C 1010.4 in /  34212.1 hPa East 1.6 mph /  2.6 km/h 3.2 mph /  5.1 km/h 93 % 0.5 in /  12.7 mm
06:27 15.1 °F /  -9.4 °C 14.0 °F /  -10 °C 1010.4 in /  34212.1 hPa Calm   3.2 mph /  5.1 km/h 93 % 0.5 in /  12.7 mm
06:32 15.1 °F /  -9.4 °C 14.0 °F /  -10 °C 1010.0 in /  34198.6 hPa East 1.6 mph /  2.6 km/h 3.2 mph /  5.1 km/h 93 % 0.5 in /  12.7 mm
06:42 15.0 °F /  -9.4 °C 13.9 °F /  -10.1 °C 1010.7 in /  34222.3 hPa Calm   3.2 mph /  5.1 km/h 93 % 0.5 in /  12.7 mm
06:47 14.9 °F /  -9.5 °C 13.9 °F /  -10.1 °C 1010.7 in /  34222.3 hPa Calm   3.2 mph /  5.1 km/h 94 % 0.5 in /  12.7 mm
06:52 14.9 °F /  -9.5 °C 13.9 °F /  -10.1 °C 1011.1 in /  34235.8 hPa Calm   1.6 mph /  2.6 km/h 94 % 0.3 in /  7.62 mm
06:57 14.9 °F /  -9.5 °C 13.9 °F /  -10.1 °C 1011.1 in /  34235.8 hPa SSW 3.2 mph /  5.1 km/h 3.2 mph /  5.1 km/h 94 % 0.0 in /  0 mm
07:02 14.9 °F /  -9.5 °C 13.9 °F /  -10.1 °C 1011.1 in /  34235.8 hPa WSW 6.4 mph /  10.3 km/h 6.4 mph /  10.3 km/h 94 % 0.0 in /  0 mm
07:12 15.0 °F /  -9.4 °C 14.0 °F /  -10 °C 1011.4 in /  34246 hPa SW 3.2 mph /  5.1 km/h 8.0 mph /  12.9 km/h 94 % 0.0 in /  0 mm
07:17 15.0 °F /  -9.4 °C 14.0 °F /  -10 °C 1011.4 in /  34246 hPa WSW 6.4 mph /  10.3 km/h 14.5 mph /  23.3 km/h 94 % 0.0 in /  0 mm
07:22 14.9 °F /  -9.5 °C 13.9 °F /  -10.1 °C 1011.4 in /  34246 hPa WSW 4.8 mph /  7.7 km/h 14.5 mph /  23.3 km/h 94 % 0.0 in /  0 mm
07:32 15.0 °F /  -9.4 °C 14.0 °F /  -10 °C 1011.4 in /  34246 hPa WSW 6.4 mph /  10.3 km/h 12.9 mph /  20.8 km/h 94 % 0.0 in /  0 mm
07:42 15.0 °F /  -9.4 °C 14.0 °F /  -10 °C 1011.4 in /  34246 hPa WSW 4.8 mph /  7.7 km/h 9.7 mph /  15.6 km/h 94 % 0.0 in /  0 mm
07:52 14.9 °F /  -9.5 °C 13.9 °F /  -10.1 °C 1011.7 in /  34256.2 hPa WSW 6.4 mph /  10.3 km/h 14.5 mph /  23.3 km/h 94 % 0.0 in /  0 mm
08:02 14.9 °F /  -9.5 °C 13.9 °F /  -10.1 °C 1011.7 in /  34256.2 hPa SW 3.2 mph /  5.1 km/h 11.3 mph /  18.2 km/h 94 % 0.0 in /  0 mm
08:07 14.9 °F /  -9.5 °C 13.9 °F /  -10.1 °C 1011.7 in /  34256.2 hPa SW 3.2 mph /  5.1 km/h 17.7 mph /  28.5 km/h 94 % 0.0 in /  0 mm
08:12 14.9 °F /  -9.5 °C 13.9 °F /  -10.1 °C 1011.7 in /  34256.2 hPa NW 4.8 mph /  7.7 km/h 17.7 mph /  28.5 km/h 94 % 0.0 in /  0 mm
08:17 14.9 °F /  -9.5 °C 13.9 °F /  -10.1 °C 1011.7 in /  34256.2 hPa WSW 11.3 mph /  18.2 km/h 17.7 mph /  28.5 km/h 94 % 0.0 in /  0 mm
08:22 15.0 °F /  -9.4 °C 14.0 °F /  -10 °C 1011.7 in /  34256.2 hPa SW 8.0 mph /  12.9 km/h 11.3 mph /  18.2 km/h 94 % 0.0 in /  0 mm
08:27 15.0 °F /  -9.4 °C 14.0 °F /  -10 °C 1012.1 in /  34269.7 hPa WSW 8.0 mph /  12.9 km/h 11.3 mph /  18.2 km/h 94 % 0.0 in /  0 mm
08:32 15.1 °F /  -9.4 °C 14.1 °F /  -9.9 °C 1012.1 in /  34269.7 hPa SW 6.4 mph /  10.3 km/h 12.9 mph /  20.8 km/h 94 % 0.0 in /  0 mm
08:37 15.1 °F /  -9.4 °C 14.1 °F /  -9.9 °C 1012.4 in /  34279.9 hPa SW 16.1 mph /  25.9 km/h 19.3 mph /  31.1 km/h 94 % 0.0 in /  0 mm
08:42 15.1 °F /  -9.4 °C 14.1 °F /  -9.9 °C 1012.4 in /  34279.9 hPa WSW 6.4 mph /  10.3 km/h 19.3 mph /  31.1 km/h 94 % 0.0 in /  0 mm
08:47 15.2 °F /  -9.3 °C 14.2 °F /  -9.9 °C 1012.4 in /  34279.9 hPa WSW 8.0 mph /  12.9 km/h 19.3 mph /  31.1 km/h 94 % 0.0 in /  0 mm
08:52 15.2 °F /  -9.3 °C 14.2 °F /  -9.9 °C 1012.4 in /  34279.9 hPa SW 6.4 mph /  10.3 km/h 19.3 mph /  31.1 km/h 94 % 0.0 in /  0 mm
08:57 15.3 °F /  -9.3 °C 14.2 °F /  -9.9 °C 1012.8 in /  34293.4 hPa SW 3.2 mph /  5.1 km/h 11.3 mph /  18.2 km/h 93 % 0.0 in /  0 mm
09:02 15.3 °F /  -9.3 °C 14.2 °F /  -9.9 °C 1012.4 in /  34279.9 hPa SW 1.6 mph /  2.6 km/h 14.5 mph /  23.3 km/h 93 % 0.0 in /  0 mm
09:12 15.3 °F /  -9.3 °C 14.2 °F /  -9.9 °C 1012.4 in /  34279.9 hPa WSW 4.8 mph /  7.7 km/h 11.3 mph /  18.2 km/h 93 % 0.0 in /  0 mm
09:17 15.4 °F /  -9.2 °C 14.3 °F /  -9.8 °C 1012.4 in /  34279.9 hPa WSW 11.3 mph /  18.2 km/h 11.3 mph /  18.2 km/h 93 % 0.0 in /  0 mm
09:22 15.6 °F /  -9.1 °C 14.5 °F /  -9.7 °C 1012.1 in /  34269.7 hPa West 11.3 mph /  18.2 km/h 14.5 mph /  23.3 km/h 93 % 0.0 in /  0 mm
09:32 16.1 °F /  -8.8 °C 14.6 °F /  -9.7 °C 1012.1 in /  34269.7 hPa West 9.7 mph /  15.6 km/h 17.7 mph /  28.5 km/h 91 % 0.0 in /  0 mm
09:37 16.3 °F /  -8.7 °C 14.7 °F /  -9.6 °C 1012.1 in /  34269.7 hPa West 11.3 mph /  18.2 km/h 19.3 mph /  31.1 km/h 90 % 0.0 in /  0 mm
09:42 16.3 °F /  -8.7 °C 14.5 °F /  -9.7 °C 1012.4 in /  34279.9 hPa WSW 6.4 mph /  10.3 km/h 19.3 mph /  31.1 km/h 89 % 0.0 in /  0 mm
09:47 16.3 °F /  -8.7 °C 14.5 °F /  -9.7 °C 1012.4 in /  34279.9 hPa WSW 6.4 mph /  10.3 km/h 19.3 mph /  31.1 km/h 89 % 0.0 in /  0 mm
09:57 16.3 °F /  -8.7 °C 14.5 °F /  -9.7 °C 1012.4 in /  34279.9 hPa SW 14.5 mph /  23.3 km/h 16.1 mph /  25.9 km/h 89 % 0.0 in /  0 mm
10:02 16.2 °F /  -8.8 °C 14.2 °F /  -9.9 °C 1012.4 in /  34279.9 hPa West 4.8 mph /  7.7 km/h 16.1 mph /  25.9 km/h 88 % 0.0 in /  0 mm
10:12 16.3 °F /  -8.7 °C 14.3 °F /  -9.8 °C 1012.4 in /  34279.9 hPa West 9.7 mph /  15.6 km/h 19.3 mph /  31.1 km/h 88 % 0.0 in /  0 mm
10:17 16.4 °F /  -8.7 °C 14.4 °F /  -9.8 °C 1012.4 in /  34279.9 hPa WSW 12.9 mph /  20.8 km/h 19.3 mph /  31.1 km/h 88 % 0.0 in /  0 mm
10:22 16.6 °F /  -8.6 °C 14.6 °F /  -9.7 °C 1012.4 in /  34279.9 hPa SW 4.8 mph /  7.7 km/h 17.7 mph /  28.5 km/h 88 % 0.0 in /  0 mm
10:32 16.6 °F /  -8.6 °C 13.9 °F /  -10.1 °C 1012.4 in /  34279.9 hPa West 16.1 mph /  25.9 km/h 27.4 mph /  44.1 km/h 84 % 0.0 in /  0 mm
10:42 16.6 °F /  -8.6 °C 14.2 °F /  -9.9 °C 1012.4 in /  34279.9 hPa West 8.0 mph /  12.9 km/h 27.4 mph /  44.1 km/h 86 % 0.0 in /  0 mm
10:47 16.9 °F /  -8.4 °C 14.7 °F /  -9.6 °C 1012.8 in /  34293.4 hPa WSW 14.5 mph /  23.3 km/h 27.4 mph /  44.1 km/h 87 % 0.0 in /  0 mm
10:52 17.3 °F /  -8.2 °C 14.6 °F /  -9.7 °C 1012.8 in /  34293.4 hPa SW 14.5 mph /  23.3 km/h 22.5 mph /  36.2 km/h 84 % 0.0 in /  0 mm
11:02 17.8 °F /  -7.9 °C 14.9 °F /  -9.5 °C 1012.8 in /  34293.4 hPa SW 9.7 mph /  15.6 km/h 20.9 mph /  33.6 km/h 83 % 0.0 in /  0 mm
11:12 17.8 °F /  -7.9 °C 14.5 °F /  -9.7 °C 1012.8 in /  34293.4 hPa SW 19.3 mph /  31.1 km/h 27.4 mph /  44.1 km/h 81 % 0.0 in /  0 mm
11:17 17.7 °F /  -7.9 °C 14.6 °F /  -9.7 °C 1012.8 in /  34293.4 hPa SW 19.3 mph /  31.1 km/h 27.4 mph /  44.1 km/h 82 % 0.0 in /  0 mm
11:22 17.6 °F /  -8 °C 14.3 °F /  -9.8 °C 1012.8 in /  34293.4 hPa SW 16.1 mph /  25.9 km/h 27.4 mph /  44.1 km/h 81 % 0.0 in /  0 mm
11:32 17.6 °F /  -8 °C 14.9 °F /  -9.5 °C 1013.1 in /  34303.6 hPa West 4.8 mph /  7.7 km/h 27.4 mph /  44.1 km/h 84 % 0.0 in /  0 mm
11:42 17.6 °F /  -8 °C 14.9 °F /  -9.5 °C 1013.1 in /  34303.6 hPa West 6.4 mph /  10.3 km/h 27.4 mph /  44.1 km/h 84 % 0.0 in /  0 mm
11:47 17.6 °F /  -8 °C 14.5 °F /  -9.7 °C 1013.1 in /  34303.6 hPa SW 14.5 mph /  23.3 km/h 27.4 mph /  44.1 km/h 82 % 0.0 in /  0 mm
11:52 17.7 °F /  -7.9 °C 14.6 °F /  -9.7 °C 1013.1 in /  34303.6 hPa WNW 9.7 mph /  15.6 km/h 27.4 mph /  44.1 km/h 82 % 0.0 in /  0 mm
11:57 17.9 °F /  -7.8 °C 14.4 °F /  -9.8 °C 1013.1 in /  34303.6 hPa WSW 16.1 mph /  25.9 km/h 22.5 mph /  36.2 km/h 80 % 0.0 in /  0 mm
12:02 17.9 °F /  -7.8 °C 14.4 °F /  -9.8 °C 1013.1 in /  34303.6 hPa WSW 16.1 mph /  25.9 km/h 29.0 mph /  46.7 km/h 80 % 0.0 in /  0 mm
12:07 18.2 °F /  -7.7 °C 14.5 °F /  -9.7 °C 1013.1 in /  34303.6 hPa WSW 11.3 mph /  18.2 km/h 32.2 mph /  51.8 km/h 79 % 0.0 in /  0 mm
12:12 18.4 °F /  -7.6 °C 14.1 °F /  -9.9 °C 1013.1 in /  34303.6 hPa WSW 17.7 mph /  28.5 km/h 32.2 mph /  51.8 km/h 76 % 0.0 in /  0 mm
12:17 18.6 °F /  -7.4 °C 13.9 °F /  -10.1 °C 1013.1 in /  34303.6 hPa West 17.7 mph /  28.5 km/h 30.6 mph /  49.2 km/h 74 % 0.0 in /  0 mm
12:22 18.4 °F /  -7.6 °C 13.7 °F /  -10.2 °C 1013.4 in /  34313.7 hPa West 16.1 mph /  25.9 km/h 30.6 mph /  49.2 km/h 74 % 0.0 in /  0 mm
12:32 18.4 °F /  -7.6 °C 13.9 °F /  -10.1 °C 1013.4 in /  34313.7 hPa West 11.3 mph /  18.2 km/h 30.6 mph /  49.2 km/h 75 % 0.0 in /  0 mm
12:42 18.5 °F /  -7.5 °C 14.0 °F /  -10 °C 1013.4 in /  34313.7 hPa West 11.3 mph /  18.2 km/h 29.0 mph /  46.7 km/h 75 % 0.0 in /  0 mm
12:47 18.8 °F /  -7.3 °C 14.5 °F /  -9.7 °C 1013.4 in /  34313.7 hPa WSW 4.8 mph /  7.7 km/h 29.0 mph /  46.7 km/h 76 % 0.0 in /  0 mm
12:52 19.2 °F /  -7.1 °C 14.5 °F /  -9.7 °C 1013.4 in /  34313.7 hPa WSW 9.7 mph /  15.6 km/h 29.0 mph /  46.7 km/h 74 % 0.0 in /  0 mm
12:57 19.7 °F /  -6.8 °C 14.7 °F /  -9.6 °C 1013.4 in /  34313.7 hPa West 6.4 mph /  10.3 km/h 19.3 mph /  31.1 km/h 73 % 0.0 in /  0 mm
13:02 19.6 °F /  -6.9 °C 14.0 °F /  -10 °C 1013.4 in /  34313.7 hPa SW 19.3 mph /  31.1 km/h 19.3 mph /  31.1 km/h 70 % 0.0 in /  0 mm
13:07 19.5 °F /  -6.9 °C 14.3 °F /  -9.8 °C 1013.4 in /  34313.7 hPa WSW 11.3 mph /  18.2 km/h 29.0 mph /  46.7 km/h 72 % 0.0 in /  0 mm
13:12 19.6 °F /  -6.9 °C 14.2 °F /  -9.9 °C 1013.4 in /  34313.7 hPa WSW 11.3 mph /  18.2 km/h 30.6 mph /  49.2 km/h 71 % 0.0 in /  0 mm
13:17 19.6 °F /  -6.9 °C 14.2 °F /  -9.9 °C 1013.4 in /  34313.7 hPa SW 12.9 mph /  20.8 km/h 30.6 mph /  49.2 km/h 71 % 0.0 in /  0 mm
13:22 19.7 °F /  -6.8 °C 13.9 °F /  -10.1 °C 1013.4 in /  34313.7 hPa West 12.9 mph /  20.8 km/h 30.6 mph /  49.2 km/h 69 % 0.0 in /  0 mm
13:27 19.9 °F /  -6.7 °C 14.5 °F /  -9.7 °C 1013.1 in /  34303.6 hPa WSW 14.5 mph /  23.3 km/h 29.0 mph /  46.7 km/h 71 % 0.0 in /  0 mm
13:32 20.0 °F /  -6.7 °C 14.4 °F /  -9.8 °C 1013.4 in /  34313.7 hPa WSW 11.3 mph /  18.2 km/h 29.0 mph /  46.7 km/h 70 % 0.0 in /  0 mm
13:42 20.1 °F /  -6.6 °C 14.2 °F /  -9.9 °C 1013.1 in /  34303.6 hPa SSW 6.4 mph /  10.3 km/h 32.2 mph /  51.8 km/h 69 % 0.0 in /  0 mm
13:47 20.4 °F /  -6.4 °C 14.5 °F /  -9.7 °C 1013.1 in /  34303.6 hPa West 9.7 mph /  15.6 km/h 32.2 mph /  51.8 km/h 69 % 0.0 in /  0 mm
13:52 20.8 °F /  -6.2 °C 14.2 °F /  -9.9 °C 1013.1 in /  34303.6 hPa SW 17.7 mph /  28.5 km/h 32.2 mph /  51.8 km/h 66 % 0.0 in /  0 mm
13:57 21.0 °F /  -6.1 °C 14.2 °F /  -9.9 °C 1013.1 in /  34303.6 hPa WSW 19.3 mph /  31.1 km/h 22.5 mph /  36.2 km/h 65 % 0.0 in /  0 mm
14:02 20.9 °F /  -6.2 °C 13.6 °F /  -10.2 °C 1013.1 in /  34303.6 hPa SW 8.0 mph /  12.9 km/h 24.1 mph /  38.8 km/h 63 % 0.0 in /  0 mm
14:07 20.9 °F /  -6.2 °C 13.8 °F /  -10.1 °C 1013.1 in /  34303.6 hPa WSW 6.4 mph /  10.3 km/h 24.1 mph /  38.8 km/h 64 % 0.0 in /  0 mm
14:12 21.0 °F /  -6.1 °C 13.4 °F /  -10.3 °C 1013.1 in /  34303.6 hPa SW 12.9 mph /  20.8 km/h 27.4 mph /  44.1 km/h 62 % 0.0 in /  0 mm
14:17 21.2 °F /  -6 °C 14.4 °F /  -9.8 °C 1013.1 in /  34303.6 hPa SW 16.1 mph /  25.9 km/h 27.4 mph /  44.1 km/h 65 % 0.0 in /  0 mm
14:22 21.3 °F /  -5.9 °C 14.0 °F /  -10 °C 1013.1 in /  34303.6 hPa SSW 14.5 mph /  23.3 km/h 27.4 mph /  44.1 km/h 63 % 0.0 in /  0 mm
14:27 21.1 °F /  -6.1 °C 13.3 °F /  -10.4 °C 1013.1 in /  34303.6 hPa WSW 19.3 mph /  31.1 km/h 29.0 mph /  46.7 km/h 61 % 0.0 in /  0 mm
14:32 20.7 °F /  -6.3 °C 13.4 °F /  -10.3 °C 1013.1 in /  34303.6 hPa WSW 11.3 mph /  18.2 km/h 29.0 mph /  46.7 km/h 63 % 0.0 in /  0 mm
14:37 20.7 °F /  -6.3 °C 13.6 °F /  -10.2 °C 1013.1 in /  34303.6 hPa West 8.0 mph /  12.9 km/h 29.0 mph /  46.7 km/h 64 % 0.0 in /  0 mm
14:42 20.8 °F /  -6.2 °C 13.5 °F /  -10.3 °C 1013.1 in /  34303.6 hPa West 14.5 mph /  23.3 km/h 29.0 mph /  46.7 km/h 63 % 0.0 in /  0 mm
14:47 20.8 °F /  -6.2 °C 13.7 °F /  -10.2 °C 1013.1 in /  34303.6 hPa West 9.7 mph /  15.6 km/h 25.7 mph /  41.4 km/h 64 % 0.0 in /  0 mm
14:52 20.8 °F /  -6.2 °C 13.7 °F /  -10.2 °C 1012.8 in /  34293.4 hPa WSW 9.7 mph /  15.6 km/h 25.7 mph /  41.4 km/h 64 % 0.0 in /  0 mm
14:57 20.9 °F /  -6.2 °C 13.6 °F /  -10.2 °C 1012.8 in /  34293.4 hPa SW 14.5 mph /  23.3 km/h 22.5 mph /  36.2 km/h 63 % 0.0 in /  0 mm
15:02 20.7 °F /  -6.3 °C 13.6 °F /  -10.2 °C 1013.1 in /  34303.6 hPa WNW 11.3 mph /  18.2 km/h 25.7 mph /  41.4 km/h 64 % 0.0 in /  0 mm
15:12 16.0 °F /  -8.9 °C 13.1 °F /  -10.5 °C 1014.1 in /  34337.4 hPa NW 12.9 mph /  20.8 km/h 48.3 mph /  77.7 km/h 83 % 3.0 in /  76.2 mm
15:17 14.9 °F /  -9.5 °C 13.3 °F /  -10.4 °C 1014.4 in /  34347.6 hPa WNW 9.7 mph /  15.6 km/h 48.3 mph /  77.7 km/h 90 % 5.6 in /  142.24 mm
15:22 14.8 °F /  -9.6 °C 13.5 °F /  -10.3 °C 1014.4 in /  34347.6 hPa West 3.2 mph /  5.1 km/h 48.3 mph /  77.7 km/h 92 % 7.1 in /  180.34 mm
15:32 14.8 °F /  -9.6 °C 13.5 °F /  -10.3 °C 1014.1 in /  34337.4 hPa WNW 8.0 mph /  12.9 km/h 20.9 mph /  33.6 km/h 92 % 8.9 in /  226.06 mm
15:37 14.8 °F /  -9.6 °C 13.7 °F /  -10.2 °C 1014.1 in /  34337.4 hPa NW 8.0 mph /  12.9 km/h 20.9 mph /  33.6 km/h 93 % 8.9 in /  226.06 mm
15:42 15.0 °F /  -9.4 °C 13.9 °F /  -10.1 °C 1014.1 in /  34337.4 hPa West 11.3 mph /  18.2 km/h 17.7 mph /  28.5 km/h 93 % 8.9 in /  226.06 mm
15:47 15.1 °F /  -9.4 °C 13.8 °F /  -10.1 °C 1014.1 in /  34337.4 hPa West 6.4 mph /  10.3 km/h 17.7 mph /  28.5 km/h 92 % 8.9 in /  226.06 mm
15:52 15.2 °F /  -9.3 °C 13.9 °F /  -10.1 °C 1014.1 in /  34337.4 hPa SW 3.2 mph /  5.1 km/h 17.7 mph /  28.5 km/h 92 % 8.9 in /  226.06 mm
15:57 15.3 °F /  -9.3 °C 13.8 °F /  -10.1 °C 1014.1 in /  34337.4 hPa South 11.3 mph /  18.2 km/h 17.7 mph /  28.5 km/h 91 % 8.9 in /  226.06 mm
16:02 15.7 °F /  -9.1 °C 14.4 °F /  -9.8 °C 1014.1 in /  34337.4 hPa SW 4.8 mph /  7.7 km/h 12.9 mph /  20.8 km/h 92 % 8.9 in /  226.06 mm
16:07 15.9 °F /  -8.9 °C 14.3 °F /  -9.8 °C 1014.1 in /  34337.4 hPa SW 4.8 mph /  7.7 km/h 16.1 mph /  25.9 km/h 90 % 8.9 in /  226.06 mm
16:12 16.2 °F /  -8.8 °C 14.6 °F /  -9.7 °C 1014.1 in /  34337.4 hPa WSW 6.4 mph /  10.3 km/h 16.1 mph /  25.9 km/h 90 % 5.1 in /  129.54 mm
16:17 16.6 °F /  -8.6 °C 14.8 °F /  -9.6 °C 1014.1 in /  34337.4 hPa SW 8.0 mph /  12.9 km/h 16.1 mph /  25.9 km/h 89 % 2.3 in /  58.42 mm
16:22 16.9 °F /  -8.4 °C 14.9 °F /  -9.5 °C 1014.1 in /  34337.4 hPa SSW 1.6 mph /  2.6 km/h 14.5 mph /  23.3 km/h 88 % 1.3 in /  33.02 mm
16:27 17.3 °F /  -8.2 °C 15.5 °F /  -9.2 °C 1014.1 in /  34337.4 hPa SW 8.0 mph /  12.9 km/h 14.5 mph /  23.3 km/h 89 % 0.5 in /  12.7 mm
16:32 17.6 °F /  -8 °C 15.6 °F /  -9.1 °C 1014.4 in /  34347.6 hPa SW 9.7 mph /  15.6 km/h 14.5 mph /  23.3 km/h 88 % 0.3 in /  7.62 mm
16:37 17.9 °F /  -7.8 °C 16.1 °F /  -8.8 °C 1014.4 in /  34347.6 hPa SW 8.0 mph /  12.9 km/h 14.5 mph /  23.3 km/h 89 % 0.0 in /  0 mm
16:42 18.3 °F /  -7.6 °C 15.9 °F /  -8.9 °C 1014.4 in /  34347.6 hPa SW 16.1 mph /  25.9 km/h 17.7 mph /  28.5 km/h 86 % 0.0 in /  0 mm
16:52 18.7 °F /  -7.4 °C 15.0 °F /  -9.4 °C 1014.4 in /  34347.6 hPa West 14.5 mph /  23.3 km/h 17.7 mph /  28.5 km/h 79 % 0.0 in /  0 mm
16:57 18.8 °F /  -7.3 °C 14.7 °F /  -9.6 °C 1014.4 in /  34347.6 hPa SW 14.5 mph /  23.3 km/h 19.3 mph /  31.1 km/h 77 % 0.0 in /  0 mm
17:02 18.8 °F /  -7.3 °C 15.3 °F /  -9.3 °C 1014.4 in /  34347.6 hPa West 16.1 mph /  25.9 km/h 20.9 mph /  33.6 km/h 80 % 0.0 in /  0 mm
17:07 19.0 °F /  -7.2 °C 14.5 °F /  -9.7 °C 1014.4 in /  34347.6 hPa WSW 6.4 mph /  10.3 km/h 25.7 mph /  41.4 km/h 75 % 0.0 in /  0 mm
17:12 19.1 °F /  -7.2 °C 14.8 °F /  -9.6 °C 1014.4 in /  34347.6 hPa WSW 9.7 mph /  15.6 km/h 25.7 mph /  41.4 km/h 76 % 0.0 in /  0 mm
17:17 19.0 °F /  -7.2 °C 14.5 °F /  -9.7 °C 1014.4 in /  34347.6 hPa SW 12.9 mph /  20.8 km/h 25.7 mph /  41.4 km/h 75 % 0.0 in /  0 mm
17:22 19.3 °F /  -7.1 °C 14.8 °F /  -9.6 °C 1014.4 in /  34347.6 hPa WSW 12.9 mph /  20.8 km/h 19.3 mph /  31.1 km/h 75 % 0.0 in /  0 mm
17:32 19.5 °F /  -6.9 °C 14.5 °F /  -9.7 °C 1014.8 in /  34361.1 hPa SW 12.9 mph /  20.8 km/h 20.9 mph /  33.6 km/h 73 % 0.0 in /  0 mm
17:37 19.6 °F /  -6.9 °C 14.6 °F /  -9.7 °C 1014.8 in /  34361.1 hPa WSW 11.3 mph /  18.2 km/h 20.9 mph /  33.6 km/h 73 % 0.0 in /  0 mm
17:42 19.6 °F /  -6.9 °C 13.3 °F /  -10.4 °C 1014.4 in /  34347.6 hPa West 11.3 mph /  18.2 km/h 25.7 mph /  41.4 km/h 67 % 0.0 in /  0 mm
17:47 19.5 °F /  -6.9 °C 13.4 °F /  -10.3 °C 1014.8 in /  34361.1 hPa West 9.7 mph /  15.6 km/h 27.4 mph /  44.1 km/h 68 % 0.0 in /  0 mm
17:52 19.4 °F /  -7 °C 13.8 °F /  -10.1 °C 1014.8 in /  34361.1 hPa NW 6.4 mph /  10.3 km/h 27.4 mph /  44.1 km/h 70 % 0.0 in /  0 mm
17:57 19.4 °F /  -7 °C 14.2 °F /  -9.9 °C 1014.8 in /  34361.1 hPa West 8.0 mph /  12.9 km/h 27.4 mph /  44.1 km/h 72 % 0.0 in /  0 mm
18:02 19.5 °F /  -6.9 °C 13.7 °F /  -10.2 °C 1014.4 in /  34347.6 hPa WSW 9.7 mph /  15.6 km/h 19.3 mph /  31.1 km/h 69 % 0.0 in /  0 mm
18:07 19.4 °F /  -7 °C 13.8 °F /  -10.1 °C 1014.8 in /  34361.1 hPa SW 11.3 mph /  18.2 km/h 16.1 mph /  25.9 km/h 70 % 0.0 in /  0 mm
18:12 19.2 °F /  -7.1 °C 13.6 °F /  -10.2 °C 1014.8 in /  34361.1 hPa WSW 3.2 mph /  5.1 km/h 19.3 mph /  31.1 km/h 70 % 0.0 in /  0 mm
18:17 19.3 °F /  -7.1 °C 14.1 °F /  -9.9 °C 1014.4 in /  34347.6 hPa WSW 8.0 mph /  12.9 km/h 20.9 mph /  33.6 km/h 72 % 0.0 in /  0 mm
18:22 19.4 °F /  -7 °C 14.0 °F /  -10 °C 1014.4 in /  34347.6 hPa WSW 4.8 mph /  7.7 km/h 20.9 mph /  33.6 km/h 71 % 0.0 in /  0 mm
18:32 19.2 °F /  -7.1 °C 14.0 °F /  -10 °C 1014.4 in /  34347.6 hPa West 4.8 mph /  7.7 km/h 19.3 mph /  31.1 km/h 72 % 0.0 in /  0 mm
18:37 19.4 °F /  -7 °C 14.2 °F /  -9.9 °C 1014.8 in /  34361.1 hPa West 4.8 mph /  7.7 km/h 16.1 mph /  25.9 km/h 72 % 0.0 in /  0 mm
18:42 19.6 °F /  -6.9 °C 14.2 °F /  -9.9 °C 1014.8 in /  34361.1 hPa WSW 11.3 mph /  18.2 km/h 16.1 mph /  25.9 km/h 71 % 0.0 in /  0 mm
18:47 19.5 °F /  -6.9 °C 13.9 °F /  -10.1 °C 1014.8 in /  34361.1 hPa WSW 12.9 mph /  20.8 km/h 16.1 mph /  25.9 km/h 70 % 0.0 in /  0 mm
18:52 19.4 °F /  -7 °C 13.8 °F /  -10.1 °C 1014.8 in /  34361.1 hPa WSW 3.2 mph /  5.1 km/h 17.7 mph /  28.5 km/h 70 % 0.0 in /  0 mm
18:57 19.4 °F /  -7 °C 13.8 °F /  -10.1 °C 1014.8 in /  34361.1 hPa WSW 11.3 mph /  18.2 km/h 17.7 mph /  28.5 km/h 70 % 0.0 in /  0 mm
19:02 19.4 °F /  -7 °C 13.6 °F /  -10.2 °C 1014.8 in /  34361.1 hPa WSW 8.0 mph /  12.9 km/h 19.3 mph /  31.1 km/h 69 % 0.0 in /  0 mm
19:07 19.5 °F /  -6.9 °C 13.4 °F /  -10.3 °C 1014.8 in /  34361.1 hPa SW 6.4 mph /  10.3 km/h 19.3 mph /  31.1 km/h 68 % 0.0 in /  0 mm
19:12 19.6 °F /  -6.9 °C 12.8 °F /  -10.7 °C 1014.8 in /  34361.1 hPa West 33.8 mph /  54.4 km/h 33.8 mph /  54.4 km/h 65 % 0.0 in /  0 mm
19:17 19.8 °F /  -6.8 °C 12.3 °F /  -10.9 °C 1014.8 in /  34361.1 hPa WSW 20.9 mph /  33.6 km/h 33.8 mph /  54.4 km/h 62 % 0.0 in /  0 mm
19:22 19.8 °F /  -6.8 °C 12.3 °F /  -10.9 °C 1014.8 in /  34361.1 hPa West 12.9 mph /  20.8 km/h 33.8 mph /  54.4 km/h 62 % 0.0 in /  0 mm
19:27 19.8 °F /  -6.8 °C 12.3 °F /  -10.9 °C 1014.8 in /  34361.1 hPa West 11.3 mph /  18.2 km/h 33.8 mph /  54.4 km/h 62 % 0.0 in /  0 mm
19:32 19.7 °F /  -6.8 °C 12.5 °F /  -10.8 °C 1015.1 in /  34371.3 hPa WSW 16.1 mph /  25.9 km/h 27.4 mph /  44.1 km/h 63 % 0.0 in /  0 mm
19:37 19.6 °F /  -6.9 °C 12.6 °F /  -10.8 °C 1015.1 in /  34371.3 hPa WSW 11.3 mph /  18.2 km/h 22.5 mph /  36.2 km/h 64 % 0.0 in /  0 mm
19:42 19.2 °F /  -7.1 °C 12.2 °F /  -11 °C 1015.1 in /  34371.3 hPa West 11.3 mph /  18.2 km/h 22.5 mph /  36.2 km/h 64 % 0.0 in /  0 mm
19:47 19.1 °F /  -7.2 °C 12.4 °F /  -10.9 °C 1015.1 in /  34371.3 hPa WNW 14.5 mph /  23.3 km/h 22.5 mph /  36.2 km/h 65 % 0.0 in /  0 mm
19:52 19.1 °F /  -7.2 °C 12.8 °F /  -10.7 °C 1015.1 in /  34371.3 hPa WSW 8.0 mph /  12.9 km/h 22.5 mph /  36.2 km/h 67 % 0.0 in /  0 mm
19:57 19.1 °F /  -7.2 °C 12.8 °F /  -10.7 °C 1015.1 in /  34371.3 hPa WNW 6.4 mph /  10.3 km/h 20.9 mph /  33.6 km/h 67 % 0.0 in /  0 mm
20:02 19.1 °F /  -7.2 °C 12.8 °F /  -10.7 °C 1015.1 in /  34371.3 hPa SW 3.2 mph /  5.1 km/h 17.7 mph /  28.5 km/h 67 % 0.0 in /  0 mm
20:07 19.1 °F /  -7.2 °C 12.8 °F /  -10.7 °C 1015.1 in /  34371.3 hPa WSW 4.8 mph /  7.7 km/h 16.1 mph /  25.9 km/h 67 % 0.0 in /  0 mm
20:12 19.0 °F /  -7.2 °C 12.7 °F /  -10.7 °C 1015.1 in /  34371.3 hPa WSW 9.7 mph /  15.6 km/h 14.5 mph /  23.3 km/h 67 % 0.0 in /  0 mm
20:17 19.1 °F /  -7.2 °C 13.1 °F /  -10.5 °C 1015.1 in /  34371.3 hPa WSW 8.0 mph /  12.9 km/h 14.5 mph /  23.3 km/h 68 % 0.0 in /  0 mm
20:22 19.1 °F /  -7.2 °C 13.1 °F /  -10.5 °C 1015.5 in /  34384.8 hPa SW 8.0 mph /  12.9 km/h 12.9 mph /  20.8 km/h 68 % 0.0 in /  0 mm
20:27 19.1 °F /  -7.2 °C 13.3 °F /  -10.4 °C 1015.5 in /  34384.8 hPa West 4.8 mph /  7.7 km/h 14.5 mph /  23.3 km/h 69 % 0.0 in /  0 mm
20:32 19.0 °F /  -7.2 °C 13.0 °F /  -10.6 °C 1015.5 in /  34384.8 hPa WSW 6.4 mph /  10.3 km/h 14.5 mph /  23.3 km/h 68 % 0.0 in /  0 mm
20:37 18.7 °F /  -7.4 °C 12.7 °F /  -10.7 °C 1015.5 in /  34384.8 hPa WSW 9.7 mph /  15.6 km/h 14.5 mph /  23.3 km/h 68 % 0.0 in /  0 mm
20:42 18.4 °F /  -7.6 °C 11.7 °F /  -11.3 °C 1015.5 in /  34384.8 hPa WSW 9.7 mph /  15.6 km/h 16.1 mph /  25.9 km/h 65 % 0.0 in /  0 mm
20:47 18.2 °F /  -7.7 °C 11.0 °F /  -11.7 °C 1015.8 in /  34395 hPa West 8.0 mph /  12.9 km/h 16.1 mph /  25.9 km/h 63 % 0.0 in /  0 mm
20:52 18.1 °F /  -7.7 °C 10.5 °F /  -11.9 °C 1015.8 in /  34395 hPa WSW 8.0 mph /  12.9 km/h 17.7 mph /  28.5 km/h 61 % 0.0 in /  0 mm
20:57 17.9 °F /  -7.8 °C 10.3 °F /  -12.1 °C 1016.1 in /  34405.1 hPa WSW 8.0 mph /  12.9 km/h 19.3 mph /  31.1 km/h 61 % 0.0 in /  0 mm
21:02 17.8 °F /  -7.9 °C 10.2 °F /  -12.1 °C 1016.1 in /  34405.1 hPa SW 3.2 mph /  5.1 km/h 19.3 mph /  31.1 km/h 61 % 0.0 in /  0 mm
21:07 17.7 °F /  -7.9 °C 10.6 °F /  -11.9 °C 1016.1 in /  34405.1 hPa SW 11.3 mph /  18.2 km/h 19.3 mph /  31.1 km/h 63 % 0.0 in /  0 mm
21:12 17.4 °F /  -8.1 °C 10.5 °F /  -11.9 °C 1016.1 in /  34405.1 hPa SW 6.4 mph /  10.3 km/h 19.3 mph /  31.1 km/h 64 % 0.0 in /  0 mm
21:17 17.3 °F /  -8.2 °C 10.7 °F /  -11.8 °C 1016.1 in /  34405.1 hPa SW 6.4 mph /  10.3 km/h 17.7 mph /  28.5 km/h 65 % 0.0 in /  0 mm
21:22 17.2 °F /  -8.2 °C 11.0 °F /  -11.7 °C 1016.1 in /  34405.1 hPa WSW 9.7 mph /  15.6 km/h 12.9 mph /  20.8 km/h 67 % 0.0 in /  0 mm
21:27 17.0 °F /  -8.3 °C 11.3 °F /  -11.5 °C 1016.5 in /  34418.7 hPa SW 8.0 mph /  12.9 km/h 11.3 mph /  18.2 km/h 69 % 0.0 in /  0 mm
21:32 16.9 °F /  -8.4 °C 11.4 °F /  -11.4 °C 1016.5 in /  34418.7 hPa West 4.8 mph /  7.7 km/h 11.3 mph /  18.2 km/h 70 % 0.0 in /  0 mm
21:37 16.7 °F /  -8.5 °C 11.6 °F /  -11.3 °C 1016.5 in /  34418.7 hPa WSW 8.0 mph /  12.9 km/h 11.3 mph /  18.2 km/h 72 % 0.0 in /  0 mm
21:42 16.7 °F /  -8.5 °C 11.6 °F /  -11.3 °C 1016.5 in /  34418.7 hPa SW 1.6 mph /  2.6 km/h 12.9 mph /  20.8 km/h 72 % 0.0 in /  0 mm
21:47 16.6 °F /  -8.6 °C 11.7 °F /  -11.3 °C 1016.5 in /  34418.7 hPa West 3.2 mph /  5.1 km/h 12.9 mph /  20.8 km/h 73 % 0.0 in /  0 mm
21:52 16.4 °F /  -8.7 °C 11.8 °F /  -11.2 °C 1016.5 in /  34418.7 hPa West 3.2 mph /  5.1 km/h 12.9 mph /  20.8 km/h 74 % 0.0 in /  0 mm
21:57 16.3 °F /  -8.7 °C 11.7 °F /  -11.3 °C 1016.5 in /  34418.7 hPa WSW 6.4 mph /  10.3 km/h 9.7 mph /  15.6 km/h 74 % 0.0 in /  0 mm
22:02 16.3 °F /  -8.7 °C 11.5 °F /  -11.4 °C 1016.8 in /  34428.8 hPa West 4.8 mph /  7.7 km/h 11.3 mph /  18.2 km/h 73 % 0.0 in /  0 mm
22:07 16.2 °F /  -8.8 °C 11.4 °F /  -11.4 °C 1016.8 in /  34428.8 hPa SW 4.8 mph /  7.7 km/h 11.3 mph /  18.2 km/h 73 % 0.0 in /  0 mm
22:12 16.1 °F /  -8.8 °C 11.3 °F /  -11.5 °C 1016.8 in /  34428.8 hPa West 3.2 mph /  5.1 km/h 11.3 mph /  18.2 km/h 73 % 0.0 in /  0 mm
22:17 16.0 °F /  -8.9 °C 11.4 °F /  -11.4 °C 1016.8 in /  34428.8 hPa West 3.2 mph /  5.1 km/h 11.3 mph /  18.2 km/h 74 % 0.0 in /  0 mm
22:22 15.8 °F /  -9 °C 11.4 °F /  -11.4 °C 1016.8 in /  34428.8 hPa SW 1.6 mph /  2.6 km/h 8.0 mph /  12.9 km/h 75 % 0.0 in /  0 mm
22:32 15.7 °F /  -9.1 °C 11.3 °F /  -11.5 °C 1016.8 in /  34428.8 hPa SSW 1.6 mph /  2.6 km/h 4.8 mph /  7.7 km/h 75 % 0.0 in /  0 mm
22:37 15.3 °F /  -9.3 °C 11.3 °F /  -11.5 °C 1016.8 in /  34428.8 hPa SSW 3.2 mph /  5.1 km/h 4.8 mph /  7.7 km/h 77 % 0.0 in /  0 mm
22:42 15.2 °F /  -9.3 °C 11.4 °F /  -11.4 °C 1016.8 in /  34428.8 hPa SW 3.2 mph /  5.1 km/h 6.4 mph /  10.3 km/h 78 % 0.0 in /  0 mm
22:47 15.1 °F /  -9.4 °C 11.5 °F /  -11.4 °C 1017.2 in /  34442.4 hPa SW 3.2 mph /  5.1 km/h 6.4 mph /  10.3 km/h 79 % 0.0 in /  0 mm
22:52 15.2 °F /  -9.3 °C 11.4 °F /  -11.4 °C 1017.2 in /  34442.4 hPa Calm   8.0 mph /  12.9 km/h 78 % 0.0 in /  0 mm
22:57 15.1 °F /  -9.4 °C 11.5 °F /  -11.4 °C 1017.2 in /  34442.4 hPa Calm   8.0 mph /  12.9 km/h 79 % 0.0 in /  0 mm
23:02 14.9 °F /  -9.5 °C 11.5 °F /  -11.4 °C 1017.2 in /  34442.4 hPa SW 3.2 mph /  5.1 km/h 8.0 mph /  12.9 km/h 80 % 0.0 in /  0 mm
23:07 14.9 °F /  -9.5 °C 11.5 °F /  -11.4 °C 1017.2 in /  34442.4 hPa Calm   6.4 mph /  10.3 km/h 80 % 0.0 in /  0 mm
23:12 15.0 °F /  -9.4 °C 11.4 °F /  -11.4 °C 1017.2 in /  34442.4 hPa WSW 3.2 mph /  5.1 km/h 6.4 mph /  10.3 km/h 79 % 0.0 in /  0 mm
23:17 15.1 °F /  -9.4 °C 11.3 °F /  -11.5 °C 1017.2 in /  34442.4 hPa SW 3.2 mph /  5.1 km/h 12.9 mph /  20.8 km/h 78 % 0.0 in /  0 mm
23:22 15.2 °F /  -9.3 °C 11.4 °F /  -11.4 °C 1017.2 in /  34442.4 hPa SSW 1.6 mph /  2.6 km/h 12.9 mph /  20.8 km/h 78 % 0.0 in /  0 mm
23:27 14.9 °F /  -9.5 °C 11.7 °F /  -11.3 °C 1017.2 in /  34442.4 hPa SSE 1.6 mph /  2.6 km/h 11.3 mph /  18.2 km/h 81 % 0.0 in /  0 mm
23:32 14.8 °F /  -9.6 °C 11.8 °F /  -11.2 °C 1017.2 in /  34442.4 hPa SSW 3.2 mph /  5.1 km/h 11.3 mph /  18.2 km/h 82 % 0.0 in /  0 mm
23:42 14.7 °F /  -9.6 °C 11.8 °F /  -11.2 °C 1017.5 in /  34452.6 hPa SSW 3.2 mph /  5.1 km/h 8.0 mph /  12.9 km/h 83 % 0.0 in /  0 mm
23:47 14.6 °F /  -9.7 °C 11.7 °F /  -11.3 °C 1017.5 in /  34452.6 hPa SW 1.6 mph /  2.6 km/h 8.0 mph /  12.9 km/h 83 % 0.0 in /  0 mm
23:52 14.7 °F /  -9.6 °C 11.8 °F /  -11.2 °C 1017.5 in /  34452.6 hPa SW 1.6 mph /  2.6 km/h 6.4 mph /  10.3 km/h 83 % 0.0 in /  0 mm
Meteo18
Compliments of Weather Underground - 4 mb

Script developed by  Jim McMurry - jmcmurry@mwt.net Adapted for the template by  Wim van der Kuil - Leuven-Template.eu

You find our weather info also at:

European Weather Network

Weather Underground

Equipment we use:

Weather-station
Davis Vue

Weather-program
Meteobridge

Weather-server
Raspberry PI 2 B+

Provider
1 and 1

Davis Vue

Meteobridge

Raspberry PI 2 B+

1 and 1